createdAt,value
2023-11-24T07:16:27.142Z,566.45
2023-11-24T07:18:54.209Z,558.20
2023-11-24T07:23:48.691Z,571.20
2023-11-24T07:28:46.096Z,562.80
2023-11-24T07:31:18.305Z,559.35
2023-11-24T07:33:49.807Z,568.63
2023-11-24T07:36:17.587Z,552.30
2023-11-24T07:38:44.332Z,567.00
2023-11-24T07:43:38.698Z,578.50
2023-11-24T07:46:08.347Z,568.20
2023-11-24T07:55:56.015Z,568.13
2023-11-24T07:58:23.263Z,567.37
2023-11-24T08:00:49.970Z,566.97
2023-11-24T08:03:18.299Z,563.75
2023-11-24T08:05:45.354Z,562.90
2023-11-24T08:08:12.081Z,569.17
2023-11-24T08:10:38.874Z,565.70
2023-11-24T08:13:05.677Z,563.65
2023-11-24T08:15:32.438Z,577.05
2023-11-24T08:18:00.541Z,578.47
2023-11-24T08:20:27.500Z,577.65
2023-11-24T08:22:54.152Z,582.40
2023-11-24T08:25:20.883Z,574.45
2023-11-24T08:27:48.116Z,578.73
2023-11-24T08:30:15.248Z,579.33
2023-11-24T08:32:45.593Z,586.30
2023-11-24T08:37:39.941Z,582.20
2023-11-24T08:40:11.990Z,583.60
2023-11-24T08:42:39.812Z,592.87
2023-11-24T08:45:07.933Z,595.75
2023-11-24T08:47:34.720Z,599.08
2023-11-24T08:50:01.643Z,597.80
2023-11-24T08:52:28.466Z,594.30
2023-11-24T08:54:55.711Z,589.35
2023-11-24T08:57:22.490Z,584.55
2023-11-24T08:59:49.215Z,578.43
2023-11-24T09:02:16.050Z,589.22
2023-11-24T09:04:43.072Z,587.22
2023-11-24T09:07:10.239Z,592.15
2023-11-24T09:09:38.265Z,595.55
2023-11-24T09:12:07.067Z,614.13
2023-11-24T09:17:06.488Z,634.87
2023-11-24T09:22:05.207Z,635.25
2023-11-24T09:24:32.005Z,641.80
2023-11-24T09:26:58.868Z,626.23
2023-11-24T09:29:27.068Z,617.85
2023-11-24T09:34:21.397Z,616.92
2023-11-24T09:36:48.769Z,612.15
2023-11-24T09:39:18.363Z,616.45
2023-11-24T09:41:50.276Z,619.83
2023-11-24T09:44:17.081Z,615.85
2023-11-24T09:46:51.864Z,611.83
2023-11-24T09:49:21.554Z,610.60
2023-11-24T09:51:48.884Z,606.67
2023-11-24T09:54:18.619Z,612.60
2023-11-24T09:56:45.563Z,610.13
2023-11-24T09:59:13.738Z,608.30
2023-11-24T10:01:41.240Z,612.00
2023-11-24T10:04:08.063Z,605.00
2023-11-24T10:06:38.341Z,607.72
2023-11-24T10:09:06.781Z,609.58
2023-11-24T10:11:36.792Z,605.00
2023-11-24T10:14:05.692Z,608.00
2023-11-24T10:16:32.784Z,607.60
2023-11-24T10:19:01.830Z,612.65
2023-11-24T10:21:33.128Z,608.95
2023-11-24T10:24:02.374Z,611.80
2023-11-24T10:26:29.404Z,611.53
2023-11-24T10:28:57.362Z,599.67
2023-11-24T10:31:24.268Z,604.53
2023-11-24T10:33:52.191Z,605.55
2023-11-24T10:36:21.487Z,608.30
2023-11-24T10:38:48.391Z,603.53
2023-11-24T10:41:24.463Z,606.97
2023-11-24T10:43:52.516Z,612.75
2023-11-24T10:46:22.156Z,602.08
2023-11-24T10:48:53.923Z,610.05
2023-11-24T10:51:25.872Z,611.00
2023-11-24T10:53:57.913Z,613.70
2023-11-24T10:56:27.490Z,623.35
2023-11-24T10:58:57.312Z,615.53
2023-11-24T11:01:27.507Z,615.70
2023-11-24T11:04:00.249Z,620.30
2023-11-24T11:06:33.001Z,612.63
2023-11-24T11:09:19.758Z,617.85
2023-11-24T11:11:58.388Z,607.67
2023-11-24T11:14:25.408Z,615.28
2023-11-24T11:16:53.552Z,615.03
2023-11-24T11:19:32.534Z,612.25
2023-11-24T11:22:03.456Z,613.53
2023-11-24T11:24:30.411Z,604.55
2023-11-24T11:26:58.991Z,609.53
2023-11-24T11:29:28.898Z,610.90
2023-11-24T11:31:59.456Z,615.33
2023-11-24T11:34:32.194Z,614.53
2023-11-24T11:37:12.691Z,606.70
2023-11-24T11:39:55.106Z,615.28
2023-11-24T11:42:33.106Z,613.80
2023-11-24T11:45:11.434Z,608.38
2023-11-24T11:47:52.653Z,608.83
2023-11-24T11:50:25.722Z,621.67
2023-11-24T11:52:55.779Z,614.08
2023-11-24T11:55:25.216Z,608.47
2023-11-24T11:57:56.652Z,608.65
2023-11-24T12:00:30.685Z,598.95
2023-11-24T12:02:59.114Z,601.58
2023-11-24T12:05:29.280Z,586.92
2023-11-24T12:07:59.373Z,593.30
2023-11-24T12:10:30.630Z,598.97
2023-11-24T12:12:59.828Z,599.92
2023-11-24T12:15:26.860Z,595.33
2023-11-24T12:17:55.039Z,597.03
2023-11-24T12:20:23.442Z,600.17
2023-11-24T12:22:52.093Z,598.92
2023-11-24T12:25:19.365Z,608.88
2023-11-24T12:27:46.637Z,599.60
2023-11-24T12:30:14.239Z,603.63
2023-11-24T12:32:45.801Z,605.10
2023-11-24T12:35:12.771Z,605.67
2023-11-24T12:37:41.801Z,606.33
2023-11-24T12:40:13.009Z,608.22
2023-11-24T12:42:42.099Z,604.03
2023-11-24T12:45:09.927Z,607.55
2023-11-24T12:50:12.171Z,614.22
2023-11-24T12:52:40.633Z,609.00
2023-11-24T12:57:36.195Z,610.22
2023-11-24T13:00:10.701Z,621.47
2023-11-24T13:02:39.087Z,617.85
2023-11-24T13:05:08.904Z,618.95
2023-11-24T13:07:36.957Z,618.50
2023-11-24T13:10:07.598Z,620.92
2023-11-24T13:12:37.829Z,622.40
2023-11-24T13:15:08.517Z,620.80
2023-11-24T13:17:35.692Z,618.30
2023-11-24T13:20:02.759Z,615.58
2023-11-24T13:22:29.546Z,612.40
2023-11-24T13:24:56.319Z,600.13
2023-11-24T13:27:23.463Z,598.35
2023-11-24T13:29:50.263Z,598.80
2023-11-24T13:32:17.810Z,594.90
2023-11-24T13:34:44.779Z,593.75
2023-11-24T13:37:14.406Z,592.35
2023-11-24T13:39:41.167Z,602.92
2023-11-24T13:42:08.340Z,599.97
2023-11-24T13:44:35.968Z,588.45
2023-11-24T13:47:03.462Z,594.92
2023-11-24T13:49:30.321Z,601.17
2023-11-24T13:51:57.108Z,600.53
2023-11-24T13:54:26.610Z,599.47
2023-11-24T13:56:54.721Z,599.40
2023-11-24T13:59:21.950Z,592.65
2023-11-24T14:01:50.405Z,595.28
2023-11-24T14:04:17.810Z,608.13
2023-11-24T14:06:50.074Z,597.13
2023-11-24T14:09:37.735Z,604.33
2023-11-24T14:12:04.998Z,603.22
2023-11-24T14:14:31.803Z,593.50
2023-11-24T14:17:00.008Z,594.97
2023-11-24T14:19:26.929Z,592.72
2023-11-24T14:21:56.910Z,587.03
2023-11-24T14:24:24.396Z,590.63
2023-11-24T14:26:51.341Z,588.63
2023-11-24T14:29:19.125Z,590.05
2023-11-24T14:31:47.932Z,589.35
2023-11-24T14:34:19.168Z,585.42
2023-11-24T14:36:46.752Z,576.60
2023-11-24T14:39:32.874Z,568.92
2023-11-24T14:42:00.525Z,568.78
2023-11-24T14:44:27.617Z,564.05
2023-11-24T14:46:54.638Z,559.83
2023-11-24T14:49:21.713Z,559.23
2023-11-24T14:51:49.763Z,556.25
2023-11-24T14:54:17.825Z,546.95
2023-11-24T14:56:46.525Z,550.25
2023-11-24T14:59:13.454Z,544.45
2023-11-24T15:01:40.970Z,546.97
2023-11-24T15:04:17.701Z,542.03
2023-11-24T15:06:51.210Z,549.92
2023-11-24T15:09:19.582Z,549.08
2023-11-24T15:11:48.898Z,542.95
2023-11-24T15:14:16.219Z,541.13
2023-11-24T15:16:58.612Z,538.80
2023-11-24T15:19:29.089Z,540.67
2023-11-24T15:21:57.274Z,539.25
2023-11-24T15:24:24.391Z,543.83
2023-11-24T15:26:53.191Z,536.10
2023-11-24T15:29:20.158Z,536.25
2023-11-24T15:31:47.304Z,538.00
2023-11-24T15:34:14.818Z,535.40
2023-11-24T15:36:42.105Z,536.17
2023-11-24T15:39:34.144Z,535.75
2023-11-24T15:42:01.802Z,536.90
2023-11-24T15:44:30.818Z,531.42
2023-11-24T15:46:57.875Z,536.85
2023-11-24T15:49:25.130Z,540.92
2023-11-24T15:51:55.107Z,543.17
2023-11-24T15:54:22.089Z,537.47
2023-11-24T15:56:50.061Z,540.90
2023-11-24T15:59:24.099Z,541.78
2023-11-24T16:01:58.428Z,542.58
2023-11-24T16:04:25.664Z,545.30
2023-11-24T16:06:56.228Z,543.05
2023-11-24T16:09:26.660Z,544.63
2023-11-24T16:12:15.852Z,547.67
2023-11-24T16:14:50.094Z,551.45
2023-11-24T16:17:16.882Z,545.00
2023-11-24T16:19:43.637Z,559.88
2023-11-24T16:22:15.762Z,544.72
2023-11-24T16:24:43.525Z,552.55
2023-11-24T16:27:10.662Z,546.83
2023-11-24T16:29:37.352Z,547.72
2023-11-24T16:34:31.891Z,540.92
2023-11-24T16:36:59.081Z,537.13
2023-11-24T16:39:28.501Z,542.10
2023-11-24T16:41:55.845Z,534.40
2023-11-24T16:44:23.745Z,519.83
2023-11-24T16:46:58.913Z,521.67
2023-11-24T16:49:26.208Z,522.05
2023-11-24T16:51:54.084Z,510.58
2023-11-24T16:54:20.993Z,508.02
2023-11-24T16:56:48.272Z,513.30
2023-11-24T16:59:18.670Z,520.28
2023-11-24T17:01:45.788Z,519.10
2023-11-24T17:04:12.579Z,512.38
2023-11-24T17:06:39.580Z,521.15
2023-11-24T17:09:12.276Z,514.92
2023-11-24T17:11:41.786Z,510.67
2023-11-24T17:14:11.286Z,515.90
2023-11-24T17:16:38.101Z,522.97
2023-11-24T17:19:05.105Z,519.25
2023-11-24T17:21:31.920Z,522.25
2023-11-24T17:23:58.775Z,525.78
2023-11-24T17:26:27.150Z,530.75
2023-11-24T17:28:54.549Z,534.35
2023-11-24T17:31:24.706Z,537.53
2023-11-24T17:33:53.065Z,531.80
2023-11-24T17:36:23.696Z,533.95
2023-11-24T17:38:50.836Z,536.45
2023-11-24T17:41:17.720Z,529.47
2023-11-24T17:43:44.537Z,536.67
2023-11-24T17:46:12.744Z,535.22
2023-11-24T17:48:39.932Z,532.50
2023-11-24T17:51:07.069Z,533.22
2023-11-24T17:53:34.124Z,529.30
2023-11-24T17:56:00.899Z,535.38
2023-11-24T17:58:28.197Z,534.13
2023-11-24T18:00:58.834Z,532.13
2023-11-24T18:03:25.637Z,529.08
2023-11-24T18:05:52.453Z,528.92
2023-11-24T18:08:22.914Z,533.40
2023-11-24T18:10:50.512Z,532.45
2023-11-24T18:13:17.934Z,537.03
2023-11-24T18:15:45.134Z,539.97
2023-11-24T18:18:12.672Z,541.40
2023-11-24T18:20:39.737Z,541.60
2023-11-24T18:23:06.535Z,542.50
2023-11-24T18:25:36.317Z,542.28
2023-11-24T18:28:04.040Z,540.58
2023-11-24T18:30:30.877Z,541.40
2023-11-24T18:32:58.369Z,535.33
2023-11-24T18:35:25.211Z,535.63
2023-11-24T18:37:52.525Z,536.70
2023-11-24T18:40:19.560Z,536.17
2023-11-24T18:42:49.142Z,534.65
2023-11-24T18:45:20.077Z,532.20
2023-11-24T18:47:47.310Z,528.92
2023-11-24T18:50:14.680Z,530.05
2023-11-24T18:52:41.615Z,529.90
2023-11-24T18:55:08.412Z,537.47
2023-11-24T18:57:38.095Z,532.33
2023-11-24T19:00:06.075Z,531.38
2023-11-24T19:02:34.227Z,541.50
2023-11-24T19:05:01.504Z,540.97
2023-11-24T19:07:28.359Z,540.17
2023-11-24T19:09:57.878Z,534.67
2023-11-24T19:12:24.839Z,544.58
2023-11-24T19:14:51.509Z,539.30
2023-11-24T19:17:18.509Z,542.75
2023-11-24T19:19:49.947Z,531.40
2023-11-24T19:22:16.877Z,526.80
2023-11-24T19:24:43.603Z,526.08
2023-11-24T19:27:10.350Z,528.55
2023-11-24T19:29:37.135Z,526.47
2023-11-24T19:32:04.688Z,529.95
2023-11-24T19:34:31.566Z,530.13
2023-11-24T19:36:58.484Z,532.03
2023-11-24T19:39:25.607Z,529.63
2023-11-24T19:41:52.288Z,527.10
2023-11-24T19:44:20.083Z,526.75
2023-11-24T19:46:46.991Z,523.53
2023-11-24T19:49:13.755Z,519.80
2023-11-24T19:51:40.973Z,513.17
2023-11-24T19:54:09.214Z,509.20
2023-11-24T19:56:35.950Z,513.30
2023-11-24T19:59:02.968Z,510.58
2023-11-24T20:01:31.408Z,507.40
2023-11-24T20:03:58.625Z,509.23
2023-11-24T20:06:25.422Z,513.85
2023-11-24T20:08:52.163Z,520.28
2023-11-24T20:11:18.911Z,519.25
2023-11-24T20:13:45.629Z,516.25
2023-11-24T20:16:12.557Z,516.47
2023-11-24T20:18:43.752Z,513.50
2023-11-24T20:21:10.484Z,515.10
2023-11-24T20:23:37.206Z,506.45
2023-11-24T20:26:04.922Z,504.30
2023-11-24T20:28:31.727Z,511.67
2023-11-24T20:30:58.498Z,513.08
2023-11-24T20:35:52.186Z,512.87
2023-11-24T20:38:19.039Z,517.38
2023-11-24T20:40:45.771Z,515.95
2023-11-24T20:43:12.637Z,516.92
2023-11-24T20:45:39.377Z,508.90
2023-11-24T20:48:06.131Z,511.13
2023-11-24T20:50:32.939Z,506.52
2023-11-24T20:52:59.618Z,507.17
2023-11-24T20:55:27.722Z,504.53
2023-11-24T20:57:55.139Z,510.20
2023-11-24T21:00:23.699Z,505.77
2023-11-24T21:02:50.719Z,505.92
2023-11-24T21:05:17.635Z,507.42
2023-11-24T21:07:44.364Z,506.83
2023-11-24T21:10:12.693Z,508.65
2023-11-24T21:12:42.874Z,507.65
2023-11-24T21:15:11.416Z,511.58
2023-11-24T21:17:38.624Z,508.50
2023-11-24T21:20:06.875Z,515.13
2023-11-24T21:22:34.839Z,514.33
2023-11-24T21:25:02.670Z,522.05
2023-11-24T21:27:29.534Z,514.78
2023-11-24T21:29:56.494Z,513.25
2023-11-24T21:32:23.375Z,507.02
2023-11-24T21:34:50.147Z,506.63
2023-11-24T21:37:17.877Z,502.88
2023-11-24T21:39:47.670Z,496.20
2023-11-24T21:42:14.448Z,494.02
2023-11-24T21:44:46.096Z,491.95
2023-11-24T21:47:13.132Z,491.65
2023-11-24T21:49:40.957Z,493.53
2023-11-24T21:52:07.760Z,488.67
2023-11-24T21:54:34.469Z,493.57
2023-11-24T21:57:01.617Z,497.98
2023-11-24T21:59:28.403Z,493.17
2023-11-24T22:01:58.092Z,488.60
2023-11-24T22:04:25.243Z,486.70
2023-11-24T22:06:52.074Z,490.08
2023-11-24T22:09:20.570Z,503.88
2023-11-24T22:11:47.944Z,494.88
2023-11-24T22:14:15.196Z,493.45
2023-11-24T22:16:44.600Z,496.65
2023-11-24T22:19:12.305Z,495.33
2023-11-24T22:21:39.391Z,496.90
2023-11-24T22:24:07.955Z,491.55
2023-11-24T22:26:35.523Z,494.55
2023-11-24T22:29:04.115Z,493.73
2023-11-24T22:31:31.070Z,489.00
2023-11-24T22:33:57.911Z,488.23
2023-11-24T22:36:24.658Z,491.50
2023-11-24T22:38:51.616Z,483.10
2023-11-24T22:41:19.540Z,487.25
2023-11-24T22:43:46.727Z,493.15
2023-11-24T22:46:20.736Z,486.70
2023-11-24T22:48:48.440Z,487.65
2023-11-24T22:51:27.116Z,487.93
2023-11-24T22:53:54.394Z,487.33
2023-11-24T22:56:26.670Z,486.77
2023-11-24T22:58:59.760Z,487.75
2023-11-24T23:01:28.504Z,486.05
2023-11-24T23:04:00.847Z,489.35
2023-11-24T23:06:31.747Z,480.58
2023-11-24T23:08:58.801Z,480.38
2023-11-24T23:11:28.523Z,483.17
2023-11-24T23:13:55.338Z,481.65
2023-11-24T23:16:26.871Z,473.48
2023-11-24T23:18:53.961Z,469.83
2023-11-24T23:21:23.978Z,461.83
2023-11-24T23:23:52.074Z,462.92
2023-11-24T23:26:19.430Z,456.13
2023-11-24T23:28:48.988Z,456.17
2023-11-24T23:31:16.691Z,453.23
2023-11-24T23:33:44.486Z,453.10
2023-11-24T23:36:13.631Z,446.08
2023-11-24T23:38:44.871Z,449.17
2023-11-24T23:41:12.348Z,454.35
2023-11-24T23:43:39.597Z,458.23
2023-11-24T23:46:07.067Z,450.65
2023-11-24T23:48:34.394Z,449.67
2023-11-24T23:51:01.317Z,454.00
2023-11-24T23:53:29.254Z,457.15
2023-11-24T23:55:57.323Z,458.35
2023-11-24T23:58:26.273Z,454.10
